Back to Top

Language: 

My Weather Underground Personal Weather Station Historical Data with Graphs...

Delerius Weather Station Historical Data
Daily Summary for January 18, 2018 Units:  Both    English   Metric
« Previous Day
Next Day »
Daily Weekly Monthly Yearly Custom
  High: Low: Average:
Temperature: 46.2 °F /  7.9 °C 34.9 °F /  1.6 °C 38.4 °F /  3.6 °C
Dew Point: 43.7 °F /  6.5 °C 33.3 °F /  0.7 °C 36.2 °F /  2.3 °C
Humidity: 97 % 86 % 92 %
Wind Speed: 28.0 mph /  45.1 km/h - 9 mph /  14.5 km/h
Wind Gust: 43.0 mph /  69.2 km/h - -
Wind:- - West
Pressure: 29.62 in /  1002.9 hPa 28.93 in /  979.6 hPa -
Precipitation: 0.14 in /  3.56 mm    
Historical Graphs
 
 
Tabular Data for January 18, 2018
Time Temperature Dew Point Pressure Wind Wind Speed Wind Gust Humidity Rainfall Rate (Hourly) solar Conditions
00:02 34.9 °F /  1.6 °C 33.6 °F /  0.9 °C 29.17 in /  987.7 hPa South 6.0 mph /  9.7 km/h 10.0 mph /  16.1 km/h 95 % 0.03 in /  0.76 mm 0 W/m2
00:07 35.1 °F /  1.7 °C 33.8 °F /  1 °C 29.17 in /  987.7 hPa South 7.0 mph /  11.3 km/h 16.0 mph /  25.7 km/h 95 % 0.04 in /  1.02 mm 0 W/m2
00:12 35.2 °F /  1.8 °C 34.0 °F /  1.1 °C 29.16 in /  987.4 hPa South 8.0 mph /  12.9 km/h 14.0 mph /  22.5 km/h 95 % 0.04 in /  1.02 mm 0 W/m2
00:17 35.4 °F /  1.9 °C 34.4 °F /  1.3 °C 29.15 in /  987 hPa South 8.0 mph /  12.9 km/h 14.0 mph /  22.5 km/h 96 % 0.04 in /  1.02 mm 0 W/m2
00:22 35.8 °F /  2.1 °C 34.8 °F /  1.6 °C 29.13 in /  986.3 hPa South 8.0 mph /  12.9 km/h 13.0 mph /  20.9 km/h 96 % 0.03 in /  0.76 mm 0 W/m2
00:27 36.0 °F /  2.2 °C 34.9 °F /  1.6 °C 29.13 in /  986.3 hPa SSW 8.0 mph /  12.9 km/h 13.0 mph /  20.9 km/h 96 % 0.03 in /  0.76 mm 0 W/m2
00:32 36.3 °F /  2.4 °C 35.3 °F /  1.8 °C 29.11 in /  985.7 hPa South 8.0 mph /  12.9 km/h 14.0 mph /  22.5 km/h 96 % 0.03 in /  0.76 mm 0 W/m2
00:37 36.5 °F /  2.5 °C 35.5 °F /  1.9 °C 29.10 in /  985.3 hPa South 7.0 mph /  11.3 km/h 12.0 mph /  19.3 km/h 96 % 0.02 in /  0.51 mm 0 W/m2
00:42 36.7 °F /  2.6 °C 35.6 °F /  2 °C 29.09 in /  985 hPa South 9.0 mph /  14.5 km/h 13.0 mph /  20.9 km/h 96 % 0.03 in /  0.76 mm 0 W/m2
00:47 37.0 °F /  2.8 °C 36.0 °F /  2.2 °C 29.08 in /  984.6 hPa SSW 8.0 mph /  12.9 km/h 14.0 mph /  22.5 km/h 96 % 0.02 in /  0.51 mm 0 W/m2
00:52 37.2 °F /  2.9 °C 36.2 °F /  2.3 °C 29.08 in /  984.6 hPa SSW 8.0 mph /  12.9 km/h 14.0 mph /  22.5 km/h 96 % 0.02 in /  0.51 mm 0 W/m2
00:57 37.4 °F /  3 °C 36.4 °F /  2.4 °C 29.07 in /  984.3 hPa SSW 5.0 mph /  8 km/h 9.0 mph /  14.5 km/h 96 % 0.03 in /  0.76 mm 0 W/m2
01:02 37.6 °F /  3.1 °C 36.5 °F /  2.5 °C 29.06 in /  984 hPa SSW 8.0 mph /  12.9 km/h 14.0 mph /  22.5 km/h 96 % 0.03 in /  0.76 mm 0 W/m2
01:07 38.5 °F /  3.6 °C 37.4 °F /  3 °C 29.05 in /  983.6 hPa SW 9.0 mph /  14.5 km/h 21.0 mph /  33.8 km/h 96 % 0.03 in /  0.76 mm 0 W/m2
01:12 39.0 °F /  3.9 °C 38.2 °F /  3.4 °C 29.05 in /  983.6 hPa SW 11.0 mph /  17.7 km/h 19.0 mph /  30.6 km/h 97 % 0.02 in /  0.51 mm 0 W/m2
01:17 39.6 °F /  4.2 °C 38.8 °F /  3.8 °C 29.04 in /  983.3 hPa SW 11.0 mph /  17.7 km/h 15.0 mph /  24.1 km/h 97 % 0.03 in /  0.76 mm 0 W/m2
01:22 39.9 °F /  4.4 °C 39.1 °F /  3.9 °C 29.04 in /  983.3 hPa SW 9.0 mph /  14.5 km/h 15.0 mph /  24.1 km/h 97 % 0.03 in /  0.76 mm 0 W/m2
01:27 40.3 °F /  4.6 °C 39.2 °F /  4 °C 29.04 in /  983.3 hPa WSW 9.0 mph /  14.5 km/h 13.0 mph /  20.9 km/h 96 % 0.03 in /  0.76 mm 0 W/m2
01:32 41.4 °F /  5.2 °C 40.6 °F /  4.8 °C 29.03 in /  983 hPa WSW 18.0 mph /  29 km/h 35.0 mph /  56.3 km/h 97 % 0.04 in /  1.02 mm 0 W/m2
01:37 43.0 °F /  6.1 °C 42.2 °F /  5.7 °C 29.02 in /  982.6 hPa West 18.0 mph /  29 km/h 28.0 mph /  45.1 km/h 97 % 0.04 in /  1.02 mm 0 W/m2
01:43 43.9 °F /  6.6 °C 43.1 °F /  6.2 °C 29.02 in /  982.6 hPa West 17.0 mph /  27.4 km/h 27.0 mph /  43.5 km/h 97 % 0.03 in /  0.76 mm 0 W/m2
01:48 44.4 °F /  6.9 °C 43.4 °F /  6.3 °C 29.02 in /  982.6 hPa West 18.0 mph /  29 km/h 28.0 mph /  45.1 km/h 96 % 0.04 in /  1.02 mm 0 W/m2
01:53 44.8 °F /  7.1 °C 43.4 °F /  6.3 °C 29.02 in /  982.6 hPa WSW 18.0 mph /  29 km/h 28.0 mph /  45.1 km/h 95 % 0.04 in /  1.02 mm 0 W/m2
01:58 45.3 °F /  7.4 °C 43.7 °F /  6.5 °C 29.00 in /  981.9 hPa West 22.0 mph /  35.4 km/h 31.0 mph /  49.9 km/h 94 % 0.03 in /  0.76 mm 0 W/m2
02:03 45.5 °F /  7.5 °C 43.6 °F /  6.4 °C 29.00 in /  981.9 hPa West 19.0 mph /  30.6 km/h 29.0 mph /  46.7 km/h 93 % 0.03 in /  0.76 mm 0 W/m2
02:08 45.7 °F /  7.6 °C 43.5 °F /  6.4 °C 28.99 in /  981.6 hPa West 20.0 mph /  32.2 km/h 32.0 mph /  51.5 km/h 92 % 0.02 in /  0.51 mm 0 W/m2
02:13 45.9 °F /  7.7 °C 43.7 °F /  6.5 °C 28.99 in /  981.6 hPa WSW 20.0 mph /  32.2 km/h 33.0 mph /  53.1 km/h 92 % 0.03 in /  0.76 mm 0 W/m2
02:18 46.0 °F /  7.8 °C 43.6 °F /  6.4 °C 28.98 in /  981.3 hPa WSW 22.0 mph /  35.4 km/h 29.0 mph /  46.7 km/h 91 % 0.02 in /  0.51 mm 0 W/m2
02:23 46.2 °F /  7.9 °C 43.4 °F /  6.3 °C 28.98 in /  981.3 hPa West 19.0 mph /  30.6 km/h 27.0 mph /  43.5 km/h 90 % 0.02 in /  0.51 mm 0 W/m2
02:28 46.2 °F /  7.9 °C 43.4 °F /  6.3 °C 28.99 in /  981.6 hPa West 23.0 mph /  37 km/h 35.0 mph /  56.3 km/h 90 % 0.02 in /  0.51 mm 0 W/m2
02:33 46.0 °F /  7.8 °C 43.3 °F /  6.3 °C 28.98 in /  981.3 hPa West 20.0 mph /  32.2 km/h 32.0 mph /  51.5 km/h 90 % 0.02 in /  0.51 mm 0 W/m2
02:38 46.0 °F /  7.8 °C 43.3 °F /  6.3 °C 28.98 in /  981.3 hPa West 20.0 mph /  32.2 km/h 28.0 mph /  45.1 km/h 90 % 0.02 in /  0.51 mm 0 W/m2
02:43 46.0 °F /  7.8 °C 43.0 °F /  6.1 °C 28.97 in /  980.9 hPa West 20.0 mph /  32.2 km/h 31.0 mph /  49.9 km/h 89 % 0.02 in /  0.51 mm 0 W/m2
02:48 46.2 °F /  7.9 °C 42.9 °F /  6.1 °C 28.97 in /  980.9 hPa West 23.0 mph /  37 km/h 41.0 mph /  66 km/h 88 % 0.02 in /  0.51 mm 0 W/m2
02:53 46.2 °F /  7.9 °C 42.6 °F /  5.9 °C 28.96 in /  980.6 hPa WSW 20.0 mph /  32.2 km/h 31.0 mph /  49.9 km/h 87 % 0.02 in /  0.51 mm 0 W/m2
02:58 46.0 °F /  7.8 °C 42.7 °F /  5.9 °C 28.96 in /  980.6 hPa WSW 19.0 mph /  30.6 km/h 37.0 mph /  59.5 km/h 88 % 0.02 in /  0.51 mm 0 W/m2
03:03 45.9 °F /  7.7 °C 42.5 °F /  5.8 °C 28.96 in /  980.6 hPa WSW 21.0 mph /  33.8 km/h 31.0 mph /  49.9 km/h 88 % 0.02 in /  0.51 mm 0 W/m2
03:08 45.7 °F /  7.6 °C 42.6 °F /  5.9 °C 28.95 in /  980.2 hPa WSW 21.0 mph /  33.8 km/h 30.0 mph /  48.3 km/h 89 % 0.02 in /  0.51 mm 0 W/m2
03:13 45.7 °F /  7.6 °C 42.6 °F /  5.9 °C 28.95 in /  980.2 hPa WSW 20.0 mph /  32.2 km/h 28.0 mph /  45.1 km/h 89 % 0.01 in /  0.25 mm 0 W/m2
03:18 45.7 °F /  7.6 °C 42.6 °F /  5.9 °C 28.94 in /  979.9 hPa WSW 19.0 mph /  30.6 km/h 28.0 mph /  45.1 km/h 89 % 0.02 in /  0.51 mm 0 W/m2
03:23 45.7 °F /  7.6 °C 42.6 °F /  5.9 °C 28.94 in /  979.9 hPa WSW 25.0 mph /  40.2 km/h 36.0 mph /  57.9 km/h 89 % 0.02 in /  0.51 mm 0 W/m2
03:28 45.7 °F /  7.6 °C 42.3 °F /  5.7 °C 28.93 in /  979.6 hPa WSW 22.0 mph /  35.4 km/h 35.0 mph /  56.3 km/h 88 % 0.02 in /  0.51 mm 0 W/m2
03:33 45.7 °F /  7.6 °C 42.0 °F /  5.6 °C 28.94 in /  979.9 hPa West 28.0 mph /  45.1 km/h 41.0 mph /  66 km/h 87 % 0.01 in /  0.25 mm 0 W/m2
03:38 45.7 °F /  7.6 °C 41.7 °F /  5.4 °C 28.95 in /  980.2 hPa West 27.0 mph /  43.5 km/h 43.0 mph /  69.2 km/h 86 % 0.01 in /  0.25 mm 0 W/m2
03:43 45.3 °F /  7.4 °C 41.4 °F /  5.2 °C 28.95 in /  980.2 hPa West 27.0 mph /  43.5 km/h 42.0 mph /  67.6 km/h 86 % 0.01 in /  0.25 mm 0 W/m2
03:48 44.8 °F /  7.1 °C 41.1 °F /  5.1 °C 28.96 in /  980.6 hPa West 24.0 mph /  38.6 km/h 33.0 mph /  53.1 km/h 87 % 0.01 in /  0.25 mm 0 W/m2
03:53 44.4 °F /  6.9 °C 40.8 °F /  4.9 °C 28.97 in /  980.9 hPa West 22.0 mph /  35.4 km/h 32.0 mph /  51.5 km/h 87 % 0.01 in /  0.25 mm 0 W/m2
03:58 44.1 °F /  6.7 °C 40.4 °F /  4.7 °C 28.97 in /  980.9 hPa West 23.0 mph /  37 km/h 39.0 mph /  62.8 km/h 87 % 0.01 in /  0.25 mm 0 W/m2
04:03 43.5 °F /  6.4 °C 40.5 °F /  4.7 °C 28.98 in /  981.3 hPa West 20.0 mph /  32.2 km/h 33.0 mph /  53.1 km/h 89 % 0.01 in /  0.25 mm 0 W/m2
04:08 43.3 °F /  6.3 °C 40.3 °F /  4.6 °C 28.98 in /  981.3 hPa West 22.0 mph /  35.4 km/h 35.0 mph /  56.3 km/h 89 % 0.01 in /  0.25 mm 0 W/m2
04:13 43.3 °F /  6.3 °C 40.6 °F /  4.8 °C 28.98 in /  981.3 hPa West 22.0 mph /  35.4 km/h 30.0 mph /  48.3 km/h 90 % 0.01 in /  0.25 mm 0 W/m2
04:18 43.2 °F /  6.2 °C 40.4 °F /  4.7 °C 29.02 in /  982.6 hPa WNW 25.0 mph /  40.2 km/h 34.0 mph /  54.7 km/h 90 % 0.00 in /  0 mm 0 W/m2
04:23 40.5 °F /  4.7 °C 36.9 °F /  2.7 °C 29.05 in /  983.6 hPa NW 12.0 mph /  19.3 km/h 19.0 mph /  30.6 km/h 87 % 0.01 in /  0.25 mm 0 W/m2
04:28 38.8 °F /  3.8 °C 35.6 °F /  2 °C 29.07 in /  984.3 hPa NW 15.0 mph /  24.1 km/h 27.0 mph /  43.5 km/h 88 % 0.01 in /  0.25 mm 0 W/m2
04:33 37.4 °F /  3 °C 34.7 °F /  1.5 °C 29.09 in /  985 hPa NW 13.0 mph /  20.9 km/h 24.0 mph /  38.6 km/h 90 % 0.01 in /  0.25 mm 0 W/m2
04:39 36.9 °F /  2.7 °C 34.5 °F /  1.4 °C 29.11 in /  985.7 hPa NW 15.0 mph /  24.1 km/h 25.0 mph /  40.2 km/h 91 % 0.01 in /  0.25 mm 0 W/m2
04:44 36.5 °F /  2.5 °C 34.1 °F /  1.2 °C 29.13 in /  986.3 hPa WNW 17.0 mph /  27.4 km/h 27.0 mph /  43.5 km/h 91 % 0.01 in /  0.25 mm 0 W/m2
04:49 36.3 °F /  2.4 °C 34.2 °F /  1.2 °C 29.14 in /  986.7 hPa WNW 15.0 mph /  24.1 km/h 26.0 mph /  41.8 km/h 92 % 0.01 in /  0.25 mm 0 W/m2
04:54 36.3 °F /  2.4 °C 34.2 °F /  1.2 °C 29.16 in /  987.4 hPa WNW 14.0 mph /  22.5 km/h 25.0 mph /  40.2 km/h 92 % 0.01 in /  0.25 mm 0 W/m2
04:59 36.3 °F /  2.4 °C 34.2 °F /  1.2 °C 29.18 in /  988 hPa WNW 11.0 mph /  17.7 km/h 15.0 mph /  24.1 km/h 92 % 0.01 in /  0.25 mm 0 W/m2
05:04 36.5 °F /  2.5 °C 34.4 °F /  1.3 °C 29.20 in /  988.7 hPa WNW 13.0 mph /  20.9 km/h 24.0 mph /  38.6 km/h 92 % 0.01 in /  0.25 mm 0 W/m2
05:09 36.5 °F /  2.5 °C 34.4 °F /  1.3 °C 29.21 in /  989.1 hPa NW 17.0 mph /  27.4 km/h 29.0 mph /  46.7 km/h 92 % 0.01 in /  0.25 mm 0 W/m2
05:14 36.7 °F /  2.6 °C 34.6 °F /  1.4 °C 29.22 in /  989.4 hPa NW 14.0 mph /  22.5 km/h 28.0 mph /  45.1 km/h 92 % 0.01 in /  0.25 mm 0 W/m2
05:19 36.7 °F /  2.6 °C 34.3 °F /  1.3 °C 29.24 in /  990.1 hPa NW 12.0 mph /  19.3 km/h 20.0 mph /  32.2 km/h 91 % 0.00 in /  0 mm 0 W/m2
05:24 36.7 °F /  2.6 °C 34.3 °F /  1.3 °C 29.25 in /  990.4 hPa NW 14.0 mph /  22.5 km/h 24.0 mph /  38.6 km/h 91 % 0.00 in /  0 mm 0 W/m2
05:29 36.9 °F /  2.7 °C 34.5 °F /  1.4 °C 29.26 in /  990.7 hPa WNW 13.0 mph /  20.9 km/h 26.0 mph /  41.8 km/h 91 % 0.00 in /  0 mm 0 W/m2
05:34 36.9 °F /  2.7 °C 34.2 °F /  1.2 °C 29.27 in /  991.1 hPa NW 14.0 mph /  22.5 km/h 21.0 mph /  33.8 km/h 90 % 0.00 in /  0 mm 0 W/m2
05:39 36.9 °F /  2.7 °C 34.2 °F /  1.2 °C 29.27 in /  991.1 hPa WNW 11.0 mph /  17.7 km/h 16.0 mph /  25.7 km/h 90 % 0.00 in /  0 mm 0 W/m2
05:44 36.9 °F /  2.7 °C 34.2 °F /  1.2 °C 29.29 in /  991.8 hPa WNW 10.0 mph /  16.1 km/h 14.0 mph /  22.5 km/h 90 % 0.00 in /  0 mm 0 W/m2
05:49 36.9 °F /  2.7 °C 34.2 °F /  1.2 °C 29.29 in /  991.8 hPa NW 9.0 mph /  14.5 km/h 16.0 mph /  25.7 km/h 90 % 0.00 in /  0 mm 0 W/m2
05:54 36.9 °F /  2.7 °C 34.2 °F /  1.2 °C 29.30 in /  992.1 hPa WNW 9.0 mph /  14.5 km/h 14.0 mph /  22.5 km/h 90 % 0.00 in /  0 mm 0 W/m2
05:59 36.9 °F /  2.7 °C 34.2 °F /  1.2 °C 29.31 in /  992.4 hPa WNW 11.0 mph /  17.7 km/h 16.0 mph /  25.7 km/h 90 % 0.00 in /  0 mm 0 W/m2
06:04 36.9 °F /  2.7 °C 34.2 °F /  1.2 °C 29.31 in /  992.4 hPa WNW 9.0 mph /  14.5 km/h 15.0 mph /  24.1 km/h 90 % 0.00 in /  0 mm 0 W/m2
06:09 36.7 °F /  2.6 °C 34.0 °F /  1.1 °C 29.32 in /  992.8 hPa WNW 12.0 mph /  19.3 km/h 20.0 mph /  32.2 km/h 90 % 0.00 in /  0 mm 0 W/m2
06:14 36.7 °F /  2.6 °C 34.0 °F /  1.1 °C 29.32 in /  992.8 hPa WNW 10.0 mph /  16.1 km/h 14.0 mph /  22.5 km/h 90 % 0.00 in /  0 mm 0 W/m2
06:19 36.7 °F /  2.6 °C 34.0 °F /  1.1 °C 29.33 in /  993.1 hPa WNW 11.0 mph /  17.7 km/h 18.0 mph /  29 km/h 90 % 0.00 in /  0 mm 0 W/m2
06:24 36.7 °F /  2.6 °C 34.0 °F /  1.1 °C 29.33 in /  993.1 hPa WNW 11.0 mph /  17.7 km/h 21.0 mph /  33.8 km/h 90 % 0.00 in /  0 mm 0 W/m2
06:29 36.7 °F /  2.6 °C 34.0 °F /  1.1 °C 29.34 in /  993.5 hPa WNW 8.0 mph /  12.9 km/h 15.0 mph /  24.1 km/h 90 % 0.00 in /  0 mm 0 W/m2
06:34 36.5 °F /  2.5 °C 33.8 °F /  1 °C 29.34 in /  993.5 hPa WNW 11.0 mph /  17.7 km/h 19.0 mph /  30.6 km/h 90 % 0.00 in /  0 mm 0 W/m2
06:39 36.5 °F /  2.5 °C 33.8 °F /  1 °C 29.35 in /  993.8 hPa WNW 14.0 mph /  22.5 km/h 23.0 mph /  37 km/h 90 % 0.00 in /  0 mm 0 W/m2
06:44 36.5 °F /  2.5 °C 33.8 °F /  1 °C 29.35 in /  993.8 hPa WNW 10.0 mph /  16.1 km/h 16.0 mph /  25.7 km/h 90 % 0.00 in /  0 mm 0 W/m2
06:49 36.3 °F /  2.4 °C 33.7 °F /  0.9 °C 29.36 in /  994.1 hPa WNW 12.0 mph /  19.3 km/h 18.0 mph /  29 km/h 90 % 0.00 in /  0 mm 0 W/m2
06:54 36.3 °F /  2.4 °C 33.7 °F /  0.9 °C 29.36 in /  994.1 hPa WNW 12.0 mph /  19.3 km/h 20.0 mph /  32.2 km/h 90 % 0.00 in /  0 mm 0 W/m2
06:59 36.3 °F /  2.4 °C 33.7 °F /  0.9 °C 29.37 in /  994.5 hPa WNW 9.0 mph /  14.5 km/h 24.0 mph /  38.6 km/h 90 % 0.00 in /  0 mm 0 W/m2
07:04 36.1 °F /  2.3 °C 33.5 °F /  0.8 °C 29.37 in /  994.5 hPa WNW 11.0 mph /  17.7 km/h 20.0 mph /  32.2 km/h 90 % 0.00 in /  0 mm 0 W/m2
07:09 36.1 °F /  2.3 °C 33.5 °F /  0.8 °C 29.38 in /  994.8 hPa WNW 12.0 mph /  19.3 km/h 16.0 mph /  25.7 km/h 90 % 0.00 in /  0 mm 0 W/m2
07:14 36.1 °F /  2.3 °C 33.5 °F /  0.8 °C 29.38 in /  994.8 hPa WNW 11.0 mph /  17.7 km/h 18.0 mph /  29 km/h 90 % 0.00 in /  0 mm 0 W/m2
07:19 36.1 °F /  2.3 °C 33.5 °F /  0.8 °C 29.38 in /  994.8 hPa WNW 12.0 mph /  19.3 km/h 16.0 mph /  25.7 km/h 90 % 0.00 in /  0 mm 0 W/m2
07:24 36.1 °F /  2.3 °C 33.5 °F /  0.8 °C 29.38 in /  994.8 hPa WNW 12.0 mph /  19.3 km/h 21.0 mph /  33.8 km/h 90 % 0.00 in /  0 mm 0 W/m2
07:29 36.0 °F /  2.2 °C 33.3 °F /  0.7 °C 29.39 in /  995.1 hPa WNW 13.0 mph /  20.9 km/h 20.0 mph /  32.2 km/h 90 % 0.00 in /  0 mm 0 W/m2
07:35 36.0 °F /  2.2 °C 33.3 °F /  0.7 °C 29.39 in /  995.1 hPa WNW 11.0 mph /  17.7 km/h 16.0 mph /  25.7 km/h 90 % 0.00 in /  0 mm 0 W/m2
07:40 36.0 °F /  2.2 °C 33.3 °F /  0.7 °C 29.39 in /  995.1 hPa West 11.0 mph /  17.7 km/h 15.0 mph /  24.1 km/h 90 % 0.00 in /  0 mm 0 W/m2
07:45 36.0 °F /  2.2 °C 33.3 °F /  0.7 °C 29.39 in /  995.1 hPa West 11.0 mph /  17.7 km/h 19.0 mph /  30.6 km/h 90 % 0.00 in /  0 mm 0 W/m2
07:50 36.0 °F /  2.2 °C 33.3 °F /  0.7 °C 29.40 in /  995.5 hPa WNW 10.0 mph /  16.1 km/h 14.0 mph /  22.5 km/h 90 % 0.00 in /  0 mm 0 W/m2
07:55 36.0 °F /  2.2 °C 33.3 °F /  0.7 °C 29.40 in /  995.5 hPa WNW 10.0 mph /  16.1 km/h 14.0 mph /  22.5 km/h 90 % 0.00 in /  0 mm 0 W/m2
08:00 36.1 °F /  2.3 °C 33.5 °F /  0.8 °C 29.40 in /  995.5 hPa WNW 7.0 mph /  11.3 km/h 12.0 mph /  19.3 km/h 90 % 0.00 in /  0 mm 0 W/m2
08:05 36.0 °F /  2.2 °C 33.3 °F /  0.7 °C 29.41 in /  995.8 hPa WNW 12.0 mph /  19.3 km/h 16.0 mph /  25.7 km/h 90 % 0.00 in /  0 mm 5 W/m2
08:10 36.1 °F /  2.3 °C 33.5 °F /  0.8 °C 29.42 in /  996.2 hPa West 11.0 mph /  17.7 km/h 16.0 mph /  25.7 km/h 90 % 0.00 in /  0 mm 5 W/m2
08:15 36.3 °F /  2.4 °C 33.7 °F /  0.9 °C 29.42 in /  996.2 hPa West 11.0 mph /  17.7 km/h 18.0 mph /  29 km/h 90 % 0.00 in /  0 mm 7 W/m2
08:20 36.3 °F /  2.4 °C 33.7 °F /  0.9 °C 29.42 in /  996.2 hPa WNW 9.0 mph /  14.5 km/h 13.0 mph /  20.9 km/h 90 % 0.00 in /  0 mm 9 W/m2
08:25 36.3 °F /  2.4 °C 33.7 °F /  0.9 °C 29.43 in /  996.5 hPa WNW 11.0 mph /  17.7 km/h 15.0 mph /  24.1 km/h 90 % 0.00 in /  0 mm 11 W/m2
08:30 36.3 °F /  2.4 °C 33.7 °F /  0.9 °C 29.43 in /  996.5 hPa WNW 8.0 mph /  12.9 km/h 14.0 mph /  22.5 km/h 90 % 0.00 in /  0 mm 12 W/m2
08:35 36.3 °F /  2.4 °C 33.7 °F /  0.9 °C 29.43 in /  996.5 hPa WNW 10.0 mph /  16.1 km/h 13.0 mph /  20.9 km/h 90 % 0.00 in /  0 mm 14 W/m2
08:40 36.3 °F /  2.4 °C 33.7 °F /  0.9 °C 29.43 in /  996.5 hPa WNW 8.0 mph /  12.9 km/h 11.0 mph /  17.7 km/h 90 % 0.00 in /  0 mm 16 W/m2
08:45 36.5 °F /  2.5 °C 33.8 °F /  1 °C 29.43 in /  996.5 hPa WNW 7.0 mph /  11.3 km/h 12.0 mph /  19.3 km/h 90 % 0.00 in /  0 mm 18 W/m2
08:50 36.5 °F /  2.5 °C 33.8 °F /  1 °C 29.44 in /  996.8 hPa WNW 6.0 mph /  9.7 km/h 11.0 mph /  17.7 km/h 90 % 0.00 in /  0 mm 18 W/m2
08:55 36.7 °F /  2.6 °C 34.0 °F /  1.1 °C 29.44 in /  996.8 hPa WNW 10.0 mph /  16.1 km/h 14.0 mph /  22.5 km/h 90 % 0.00 in /  0 mm 21 W/m2
09:00 36.7 °F /  2.6 °C 34.0 °F /  1.1 °C 29.45 in /  997.2 hPa West 8.0 mph /  12.9 km/h 14.0 mph /  22.5 km/h 90 % 0.00 in /  0 mm 26 W/m2
09:05 36.9 °F /  2.7 °C 34.2 °F /  1.2 °C 29.45 in /  997.2 hPa WNW 8.0 mph /  12.9 km/h 13.0 mph /  20.9 km/h 90 % 0.00 in /  0 mm 28 W/m2
09:10 37.0 °F /  2.8 °C 34.4 °F /  1.3 °C 29.45 in /  997.2 hPa WNW 7.0 mph /  11.3 km/h 12.0 mph /  19.3 km/h 90 % 0.00 in /  0 mm 49 W/m2
09:15 37.2 °F /  2.9 °C 34.6 °F /  1.4 °C 29.45 in /  997.2 hPa WNW 9.0 mph /  14.5 km/h 15.0 mph /  24.1 km/h 90 % 0.00 in /  0 mm 46 W/m2
09:20 37.4 °F /  3 °C 34.7 °F /  1.5 °C 29.45 in /  997.2 hPa West 9.0 mph /  14.5 km/h 12.0 mph /  19.3 km/h 90 % 0.00 in /  0 mm 58 W/m2
09:25 37.6 °F /  3.1 °C 34.9 °F /  1.6 °C 29.46 in /  997.5 hPa West 8.0 mph /  12.9 km/h 11.0 mph /  17.7 km/h 90 % 0.00 in /  0 mm 35 W/m2
09:30 37.8 °F /  3.2 °C 35.1 °F /  1.7 °C 29.46 in /  997.5 hPa WSW 5.0 mph /  8 km/h 8.0 mph /  12.9 km/h 90 % 0.00 in /  0 mm 30 W/m2
09:36 37.8 °F /  3.2 °C 35.1 °F /  1.7 °C 29.47 in /  997.9 hPa WNW 7.0 mph /  11.3 km/h 13.0 mph /  20.9 km/h 90 % 0.00 in /  0 mm 46 W/m2
09:41 37.9 °F /  3.3 °C 35.3 °F /  1.8 °C 29.47 in /  997.9 hPa West 8.0 mph /  12.9 km/h 13.0 mph /  20.9 km/h 90 % 0.00 in /  0 mm 176 W/m2
09:46 38.3 °F /  3.5 °C 35.6 °F /  2 °C 29.46 in /  997.5 hPa West 9.0 mph /  14.5 km/h 13.0 mph /  20.9 km/h 90 % 0.00 in /  0 mm 65 W/m2
09:51 38.5 °F /  3.6 °C 35.5 °F /  1.9 °C 29.46 in /  997.5 hPa WNW 6.0 mph /  9.7 km/h 11.0 mph /  17.7 km/h 89 % 0.00 in /  0 mm 169 W/m2
09:56 38.8 °F /  3.8 °C 35.9 °F /  2.2 °C 29.47 in /  997.9 hPa WNW 3.0 mph /  4.8 km/h 7.0 mph /  11.3 km/h 89 % 0.00 in /  0 mm 76 W/m2
10:01 39.0 °F /  3.9 °C 36.1 °F /  2.3 °C 29.47 in /  997.9 hPa WNW 2.0 mph /  3.2 km/h 6.0 mph /  9.7 km/h 89 % 0.00 in /  0 mm 91 W/m2
10:06 39.2 °F /  4 °C 36.2 °F /  2.3 °C 29.47 in /  997.9 hPa WNW 2.0 mph /  3.2 km/h 6.0 mph /  9.7 km/h 89 % 0.00 in /  0 mm 81 W/m2
10:11 39.4 °F /  4.1 °C 36.4 °F /  2.4 °C 29.47 in /  997.9 hPa NNW 1.0 mph /  1.6 km/h 4.0 mph /  6.4 km/h 89 % 0.00 in /  0 mm 47 W/m2
10:16 39.4 °F /  4.1 °C 36.1 °F /  2.3 °C 29.47 in /  997.9 hPa Calm     88 % 0.00 in /  0 mm 79 W/m2
10:21 39.4 °F /  4.1 °C 36.1 °F /  2.3 °C 29.48 in /  998.2 hPa SW 3.0 mph /  4.8 km/h 7.0 mph /  11.3 km/h 88 % 0.00 in /  0 mm 95 W/m2
10:26 39.4 °F /  4.1 °C 36.1 °F /  2.3 °C 29.48 in /  998.2 hPa West 2.0 mph /  3.2 km/h 4.0 mph /  6.4 km/h 88 % 0.00 in /  0 mm 54 W/m2
10:31 39.4 °F /  4.1 °C 36.1 °F /  2.3 °C 29.48 in /  998.2 hPa Calm   3.0 mph /  4.8 km/h 88 % 0.00 in /  0 mm 188 W/m2
10:36 39.6 °F /  4.2 °C 36.3 °F /  2.4 °C 29.48 in /  998.2 hPa WNW 1.0 mph /  1.6 km/h 5.0 mph /  8 km/h 88 % 0.00 in /  0 mm 97 W/m2
10:41 39.6 °F /  4.2 °C 36.3 °F /  2.4 °C 29.48 in /  998.2 hPa WNW 1.0 mph /  1.6 km/h 5.0 mph /  8 km/h 88 % 0.00 in /  0 mm 95 W/m2
10:46 39.9 °F /  4.4 °C 36.9 °F /  2.7 °C 29.48 in /  998.2 hPa Calm   1.0 mph /  1.6 km/h 89 % 0.00 in /  0 mm 309 W/m2
10:51 40.5 °F /  4.7 °C 37.2 °F /  2.9 °C 29.48 in /  998.2 hPa WSW 3.0 mph /  4.8 km/h 5.0 mph /  8 km/h 88 % 0.00 in /  0 mm 62 W/m2
10:56 40.6 °F /  4.8 °C 37.1 °F /  2.8 °C 29.48 in /  998.2 hPa SW 2.0 mph /  3.2 km/h 5.0 mph /  8 km/h 87 % 0.00 in /  0 mm 123 W/m2
11:01 40.6 °F /  4.8 °C 37.1 °F /  2.8 °C 29.49 in /  998.5 hPa SW 6.0 mph /  9.7 km/h 10.0 mph /  16.1 km/h 87 % 0.00 in /  0 mm 62 W/m2
11:06 40.5 °F /  4.7 °C 36.9 °F /  2.7 °C 29.49 in /  998.5 hPa WSW 5.0 mph /  8 km/h 9.0 mph /  14.5 km/h 87 % 0.00 in /  0 mm 42 W/m2
11:11 40.3 °F /  4.6 °C 36.7 °F /  2.6 °C 29.49 in /  998.5 hPa WSW 5.0 mph /  8 km/h 10.0 mph /  16.1 km/h 87 % 0.00 in /  0 mm 65 W/m2
11:16 40.3 °F /  4.6 °C 37.0 °F /  2.8 °C 29.49 in /  998.5 hPa West 6.0 mph /  9.7 km/h 10.0 mph /  16.1 km/h 88 % 0.00 in /  0 mm 97 W/m2
11:21 40.3 °F /  4.6 °C 37.0 °F /  2.8 °C 29.49 in /  998.5 hPa West 4.0 mph /  6.4 km/h 7.0 mph /  11.3 km/h 88 % 0.00 in /  0 mm 77 W/m2
11:26 40.3 °F /  4.6 °C 37.0 °F /  2.8 °C 29.49 in /  998.5 hPa West 3.0 mph /  4.8 km/h 7.0 mph /  11.3 km/h 88 % 0.00 in /  0 mm 84 W/m2
11:31 40.3 °F /  4.6 °C 37.3 °F /  2.9 °C 29.49 in /  998.5 hPa WSW 3.0 mph /  4.8 km/h 7.0 mph /  11.3 km/h 89 % 0.00 in /  0 mm 109 W/m2
11:36 40.3 °F /  4.6 °C 37.3 °F /  2.9 °C 29.49 in /  998.5 hPa West 4.0 mph /  6.4 km/h 8.0 mph /  12.9 km/h 89 % 0.00 in /  0 mm 65 W/m2
11:41 40.5 °F /  4.7 °C 37.5 °F /  3.1 °C 29.49 in /  998.5 hPa WSW 4.0 mph /  6.4 km/h 7.0 mph /  11.3 km/h 89 % 0.00 in /  0 mm 49 W/m2
11:46 40.5 °F /  4.7 °C 37.5 °F /  3.1 °C 29.49 in /  998.5 hPa West 5.0 mph /  8 km/h 9.0 mph /  14.5 km/h 89 % 0.00 in /  0 mm 28 W/m2
11:51 40.5 °F /  4.7 °C 37.5 °F /  3.1 °C 29.49 in /  998.5 hPa West 2.0 mph /  3.2 km/h 5.0 mph /  8 km/h 89 % 0.00 in /  0 mm 37 W/m2
11:56 40.6 °F /  4.8 °C 37.7 °F /  3.2 °C 29.49 in /  998.5 hPa West 7.0 mph /  11.3 km/h 11.0 mph /  17.7 km/h 89 % 0.00 in /  0 mm 90 W/m2
12:01 40.6 °F /  4.8 °C 37.7 °F /  3.2 °C 29.49 in /  998.5 hPa WSW 5.0 mph /  8 km/h 8.0 mph /  12.9 km/h 89 % 0.00 in /  0 mm 28 W/m2
12:06 40.6 °F /  4.8 °C 37.4 °F /  3 °C 29.49 in /  998.5 hPa West 8.0 mph /  12.9 km/h 14.0 mph /  22.5 km/h 88 % 0.00 in /  0 mm 28 W/m2
12:11 40.6 °F /  4.8 °C 37.4 °F /  3 °C 29.49 in /  998.5 hPa West 9.0 mph /  14.5 km/h 13.0 mph /  20.9 km/h 88 % 0.00 in /  0 mm 25 W/m2
12:16 40.5 °F /  4.7 °C 37.5 °F /  3.1 °C 29.49 in /  998.5 hPa WSW 7.0 mph /  11.3 km/h 13.0 mph /  20.9 km/h 89 % 0.00 in /  0 mm 53 W/m2
12:21 40.3 °F /  4.6 °C 37.3 °F /  2.9 °C 29.49 in /  998.5 hPa West 5.0 mph /  8 km/h 8.0 mph /  12.9 km/h 89 % 0.01 in /  0.25 mm 42 W/m2
12:26 40.1 °F /  4.5 °C 37.4 °F /  3 °C 29.49 in /  998.5 hPa WNW 8.0 mph /  12.9 km/h 11.0 mph /  17.7 km/h 90 % 0.01 in /  0.25 mm 83 W/m2
12:31 39.9 °F /  4.4 °C 37.2 °F /  2.9 °C 29.49 in /  998.5 hPa West 8.0 mph /  12.9 km/h 13.0 mph /  20.9 km/h 90 % 0.01 in /  0.25 mm 83 W/m2
12:36 39.7 °F /  4.3 °C 37.0 °F /  2.8 °C 29.49 in /  998.5 hPa West 7.0 mph /  11.3 km/h 11.0 mph /  17.7 km/h 90 % 0.01 in /  0.25 mm 79 W/m2
12:41 39.7 °F /  4.3 °C 37.0 °F /  2.8 °C 29.49 in /  998.5 hPa West 9.0 mph /  14.5 km/h 12.0 mph /  19.3 km/h 90 % 0.01 in /  0.25 mm 60 W/m2
12:46 39.6 °F /  4.2 °C 37.2 °F /  2.9 °C 29.49 in /  998.5 hPa WNW 7.0 mph /  11.3 km/h 10.0 mph /  16.1 km/h 91 % 0.01 in /  0.25 mm 113 W/m2
12:51 39.6 °F /  4.2 °C 37.2 °F /  2.9 °C 29.49 in /  998.5 hPa West 7.0 mph /  11.3 km/h 12.0 mph /  19.3 km/h 91 % 0.02 in /  0.51 mm 179 W/m2
12:56 39.7 °F /  4.3 °C 37.6 °F /  3.1 °C 29.49 in /  998.5 hPa WNW 7.0 mph /  11.3 km/h 9.0 mph /  14.5 km/h 92 % 0.02 in /  0.51 mm 192 W/m2
13:02 39.9 °F /  4.4 °C 37.8 °F /  3.2 °C 29.49 in /  998.5 hPa NW 4.0 mph /  6.4 km/h 9.0 mph /  14.5 km/h 92 % 0.02 in /  0.51 mm 100 W/m2
13:07 39.9 °F /  4.4 °C 37.8 °F /  3.2 °C 29.49 in /  998.5 hPa WNW 6.0 mph /  9.7 km/h 9.0 mph /  14.5 km/h 92 % 0.02 in /  0.51 mm 42 W/m2
13:12 39.9 °F /  4.4 °C 37.8 °F /  3.2 °C 29.49 in /  998.5 hPa WNW 2.0 mph /  3.2 km/h 6.0 mph /  9.7 km/h 92 % 0.02 in /  0.51 mm 39 W/m2
13:17 39.9 °F /  4.4 °C 37.8 °F /  3.2 °C 29.49 in /  998.5 hPa NW 5.0 mph /  8 km/h 8.0 mph /  12.9 km/h 92 % 0.02 in /  0.51 mm 47 W/m2
13:22 39.7 °F /  4.3 °C 37.6 °F /  3.1 °C 29.50 in /  998.9 hPa WNW 9.0 mph /  14.5 km/h 15.0 mph /  24.1 km/h 92 % 0.02 in /  0.51 mm 14 W/m2
13:27 39.6 °F /  4.2 °C 37.4 °F /  3 °C 29.49 in /  998.5 hPa West 6.0 mph /  9.7 km/h 11.0 mph /  17.7 km/h 92 % 0.02 in /  0.51 mm 19 W/m2
13:32 39.4 °F /  4.1 °C 37.2 °F /  2.9 °C 29.49 in /  998.5 hPa West 9.0 mph /  14.5 km/h 13.0 mph /  20.9 km/h 92 % 0.02 in /  0.51 mm 46 W/m2
13:37 39.0 °F /  3.9 °C 36.9 °F /  2.7 °C 29.49 in /  998.5 hPa West 5.0 mph /  8 km/h 8.0 mph /  12.9 km/h 92 % 0.03 in /  0.76 mm 42 W/m2
13:42 39.0 °F /  3.9 °C 36.9 °F /  2.7 °C 29.49 in /  998.5 hPa West 2.0 mph /  3.2 km/h 5.0 mph /  8 km/h 92 % 0.03 in /  0.76 mm 72 W/m2
13:47 39.0 °F /  3.9 °C 37.2 °F /  2.9 °C 29.49 in /  998.5 hPa Calm   2.0 mph /  3.2 km/h 93 % 0.02 in /  0.51 mm 83 W/m2
13:52 39.0 °F /  3.9 °C 37.2 °F /  2.9 °C 29.49 in /  998.5 hPa Calm     93 % 0.02 in /  0.51 mm 44 W/m2
14:02 39.0 °F /  3.9 °C 37.2 °F /  2.9 °C 29.49 in /  998.5 hPa West 2.0 mph /  3.2 km/h 4.0 mph /  6.4 km/h 93 % 0.02 in /  0.51 mm 62 W/m2
14:07 38.8 °F /  3.8 °C 37.0 °F /  2.8 °C 29.49 in /  998.5 hPa West 2.0 mph /  3.2 km/h 6.0 mph /  9.7 km/h 93 % 0.02 in /  0.51 mm 60 W/m2
14:12 38.8 °F /  3.8 °C 37.0 °F /  2.8 °C 29.50 in /  998.9 hPa West 1.0 mph /  1.6 km/h 4.0 mph /  6.4 km/h 93 % 0.02 in /  0.51 mm 33 W/m2
14:17 38.7 °F /  3.7 °C 36.8 °F /  2.7 °C 29.50 in /  998.9 hPa SSW 3.0 mph /  4.8 km/h 5.0 mph /  8 km/h 93 % 0.02 in /  0.51 mm 18 W/m2
14:22 38.5 °F /  3.6 °C 36.6 °F /  2.6 °C 29.50 in /  998.9 hPa SW 3.0 mph /  4.8 km/h 5.0 mph /  8 km/h 93 % 0.02 in /  0.51 mm 25 W/m2
14:27 38.5 °F /  3.6 °C 36.6 °F /  2.6 °C 29.49 in /  998.5 hPa WSW 7.0 mph /  11.3 km/h 14.0 mph /  22.5 km/h 93 % 0.01 in /  0.25 mm 47 W/m2
14:32 38.5 °F /  3.6 °C 36.6 °F /  2.6 °C 29.49 in /  998.5 hPa West 2.0 mph /  3.2 km/h 5.0 mph /  8 km/h 93 % 0.01 in /  0.25 mm 26 W/m2
14:37 38.5 °F /  3.6 °C 36.6 °F /  2.6 °C 29.49 in /  998.5 hPa West 4.0 mph /  6.4 km/h 10.0 mph /  16.1 km/h 93 % 0.00 in /  0 mm 32 W/m2
14:42 38.5 °F /  3.6 °C 36.6 °F /  2.6 °C 29.50 in /  998.9 hPa West 7.0 mph /  11.3 km/h 12.0 mph /  19.3 km/h 93 % 0.00 in /  0 mm 44 W/m2
14:47 38.5 °F /  3.6 °C 36.6 °F /  2.6 °C 29.49 in /  998.5 hPa West 4.0 mph /  6.4 km/h 7.0 mph /  11.3 km/h 93 % 0.00 in /  0 mm 56 W/m2
14:52 38.3 °F /  3.5 °C 36.5 °F /  2.5 °C 29.50 in /  998.9 hPa West 4.0 mph /  6.4 km/h 7.0 mph /  11.3 km/h 93 % 0.00 in /  0 mm 42 W/m2
14:57 38.3 °F /  3.5 °C 36.5 °F /  2.5 °C 29.50 in /  998.9 hPa WSW 5.0 mph /  8 km/h 8.0 mph /  12.9 km/h 93 % 0.00 in /  0 mm 37 W/m2
15:02 38.3 °F /  3.5 °C 36.5 °F /  2.5 °C 29.50 in /  998.9 hPa West 3.0 mph /  4.8 km/h 6.0 mph /  9.7 km/h 93 % 0.00 in /  0 mm 40 W/m2
15:07 38.3 °F /  3.5 °C 36.5 °F /  2.5 °C 29.50 in /  998.9 hPa West 6.0 mph /  9.7 km/h 9.0 mph /  14.5 km/h 93 % 0.00 in /  0 mm 35 W/m2
15:12 38.1 °F /  3.4 °C 36.3 °F /  2.4 °C 29.50 in /  998.9 hPa West 5.0 mph /  8 km/h 8.0 mph /  12.9 km/h 93 % 0.00 in /  0 mm 32 W/m2
15:17 38.1 °F /  3.4 °C 36.3 °F /  2.4 °C 29.50 in /  998.9 hPa West 5.0 mph /  8 km/h 8.0 mph /  12.9 km/h 93 % 0.00 in /  0 mm 30 W/m2
15:22 38.1 °F /  3.4 °C 36.3 °F /  2.4 °C 29.50 in /  998.9 hPa West 8.0 mph /  12.9 km/h 11.0 mph /  17.7 km/h 93 % 0.00 in /  0 mm 23 W/m2
15:27 38.1 °F /  3.4 °C 36.3 °F /  2.4 °C 29.50 in /  998.9 hPa West 8.0 mph /  12.9 km/h 10.0 mph /  16.1 km/h 93 % 0.00 in /  0 mm 16 W/m2
15:33 38.1 °F /  3.4 °C 36.3 °F /  2.4 °C 29.50 in /  998.9 hPa WSW 7.0 mph /  11.3 km/h 10.0 mph /  16.1 km/h 93 % 0.00 in /  0 mm 14 W/m2
15:38 38.1 °F /  3.4 °C 36.3 °F /  2.4 °C 29.51 in /  999.2 hPa West 6.0 mph /  9.7 km/h 10.0 mph /  16.1 km/h 93 % 0.00 in /  0 mm 14 W/m2
15:43 38.1 °F /  3.4 °C 36.3 °F /  2.4 °C 29.51 in /  999.2 hPa West 6.0 mph /  9.7 km/h 9.0 mph /  14.5 km/h 93 % 0.00 in /  0 mm 12 W/m2
15:48 38.1 °F /  3.4 °C 36.3 °F /  2.4 °C 29.50 in /  998.9 hPa West 4.0 mph /  6.4 km/h 8.0 mph /  12.9 km/h 93 % 0.00 in /  0 mm 12 W/m2
15:53 37.9 °F /  3.3 °C 35.8 °F /  2.1 °C 29.51 in /  999.2 hPa West 5.0 mph /  8 km/h 8.0 mph /  12.9 km/h 92 % 0.00 in /  0 mm 11 W/m2
15:58 37.8 °F /  3.2 °C 35.6 °F /  2 °C 29.51 in /  999.2 hPa West 4.0 mph /  6.4 km/h 8.0 mph /  12.9 km/h 92 % 0.00 in /  0 mm 11 W/m2
16:03 37.6 °F /  3.1 °C 35.5 °F /  1.9 °C 29.51 in /  999.2 hPa West 6.0 mph /  9.7 km/h 9.0 mph /  14.5 km/h 92 % 0.00 in /  0 mm 9 W/m2
16:08 37.4 °F /  3 °C 35.6 °F /  2 °C 29.51 in /  999.2 hPa WNW 4.0 mph /  6.4 km/h 7.0 mph /  11.3 km/h 93 % 0.00 in /  0 mm 7 W/m2
16:13 37.4 °F /  3 °C 35.6 °F /  2 °C 29.51 in /  999.2 hPa West 4.0 mph /  6.4 km/h 7.0 mph /  11.3 km/h 93 % 0.00 in /  0 mm 5 W/m2
16:18 37.6 °F /  3.1 °C 35.7 °F /  2.1 °C 29.52 in /  999.5 hPa West 4.0 mph /  6.4 km/h 7.0 mph /  11.3 km/h 93 % 0.00 in /  0 mm 0 W/m2
16:23 37.6 °F /  3.1 °C 35.7 °F /  2.1 °C 29.52 in /  999.5 hPa WNW 4.0 mph /  6.4 km/h 7.0 mph /  11.3 km/h 93 % 0.00 in /  0 mm 0 W/m2
16:28 37.6 °F /  3.1 °C 35.7 °F /  2.1 °C 29.52 in /  999.5 hPa WNW 4.0 mph /  6.4 km/h 6.0 mph /  9.7 km/h 93 % 0.00 in /  0 mm 0 W/m2
16:33 37.6 °F /  3.1 °C 35.7 °F /  2.1 °C 29.52 in /  999.5 hPa West 4.0 mph /  6.4 km/h 8.0 mph /  12.9 km/h 93 % 0.00 in /  0 mm 0 W/m2
16:38 37.6 °F /  3.1 °C 35.7 °F /  2.1 °C 29.52 in /  999.5 hPa West 2.0 mph /  3.2 km/h 6.0 mph /  9.7 km/h 93 % 0.00 in /  0 mm 0 W/m2
16:43 37.4 °F /  3 °C 35.6 °F /  2 °C 29.52 in /  999.5 hPa WNW 4.0 mph /  6.4 km/h 6.0 mph /  9.7 km/h 93 % 0.00 in /  0 mm 0 W/m2
16:48 37.2 °F /  2.9 °C 35.4 °F /  1.9 °C 29.52 in /  999.5 hPa WNW 5.0 mph /  8 km/h 8.0 mph /  12.9 km/h 93 % 0.00 in /  0 mm 0 W/m2
16:53 37.2 °F /  2.9 °C 35.4 °F /  1.9 °C 29.52 in /  999.5 hPa WNW 4.0 mph /  6.4 km/h 8.0 mph /  12.9 km/h 93 % 0.00 in /  0 mm 0 W/m2
16:58 37.2 °F /  2.9 °C 35.4 °F /  1.9 °C 29.52 in /  999.5 hPa WNW 7.0 mph /  11.3 km/h 9.0 mph /  14.5 km/h 93 % 0.00 in /  0 mm 0 W/m2
17:03 37.2 °F /  2.9 °C 35.4 °F /  1.9 °C 29.52 in /  999.5 hPa WNW 8.0 mph /  12.9 km/h 12.0 mph /  19.3 km/h 93 % 0.00 in /  0 mm 0 W/m2
17:08 37.2 °F /  2.9 °C 35.4 °F /  1.9 °C 29.52 in /  999.5 hPa WNW 6.0 mph /  9.7 km/h 10.0 mph /  16.1 km/h 93 % 0.00 in /  0 mm 0 W/m2
17:13 37.4 °F /  3 °C 35.8 °F /  2.1 °C 29.53 in /  999.9 hPa WNW 7.0 mph /  11.3 km/h 11.0 mph /  17.7 km/h 94 % 0.00 in /  0 mm 0 W/m2
17:18 37.6 °F /  3.1 °C 36.0 °F /  2.2 °C 29.53 in /  999.9 hPa WNW 5.0 mph /  8 km/h 8.0 mph /  12.9 km/h 94 % 0.00 in /  0 mm 0 W/m2
17:23 37.6 °F /  3.1 °C 36.0 °F /  2.2 °C 29.53 in /  999.9 hPa WNW 4.0 mph /  6.4 km/h 7.0 mph /  11.3 km/h 94 % 0.00 in /  0 mm 0 W/m2
17:28 37.8 °F /  3.2 °C 36.2 °F /  2.3 °C 29.53 in /  999.9 hPa WNW 7.0 mph /  11.3 km/h 15.0 mph /  24.1 km/h 94 % 0.01 in /  0.25 mm 0 W/m2
17:33 37.8 °F /  3.2 °C 36.2 °F /  2.3 °C 29.54 in /  1000.2 hPa WNW 7.0 mph /  11.3 km/h 11.0 mph /  17.7 km/h 94 % 0.01 in /  0.25 mm 0 W/m2
17:38 37.8 °F /  3.2 °C 35.9 °F /  2.2 °C 29.54 in /  1000.2 hPa WNW 8.0 mph /  12.9 km/h 12.0 mph /  19.3 km/h 93 % 0.01 in /  0.25 mm 0 W/m2
17:43 37.8 °F /  3.2 °C 35.9 °F /  2.2 °C 29.54 in /  1000.2 hPa West 9.0 mph /  14.5 km/h 14.0 mph /  22.5 km/h 93 % 0.01 in /  0.25 mm 0 W/m2
17:48 37.6 °F /  3.1 °C 35.7 °F /  2.1 °C 29.54 in /  1000.2 hPa WNW 9.0 mph /  14.5 km/h 13.0 mph /  20.9 km/h 93 % 0.01 in /  0.25 mm 0 W/m2
17:53 37.6 °F /  3.1 °C 35.7 °F /  2.1 °C 29.55 in /  1000.6 hPa West 8.0 mph /  12.9 km/h 15.0 mph /  24.1 km/h 93 % 0.01 in /  0.25 mm 0 W/m2
17:58 37.2 °F /  2.9 °C 35.4 °F /  1.9 °C 29.55 in /  1000.6 hPa West 7.0 mph /  11.3 km/h 10.0 mph /  16.1 km/h 93 % 0.01 in /  0.25 mm 0 W/m2
18:03 37.0 °F /  2.8 °C 35.2 °F /  1.8 °C 29.55 in /  1000.6 hPa West 7.0 mph /  11.3 km/h 10.0 mph /  16.1 km/h 93 % 0.01 in /  0.25 mm 0 W/m2
18:08 37.0 °F /  2.8 °C 35.2 °F /  1.8 °C 29.55 in /  1000.6 hPa WNW 5.0 mph /  8 km/h 7.0 mph /  11.3 km/h 93 % 0.01 in /  0.25 mm 0 W/m2
18:13 36.9 °F /  2.7 °C 35.0 °F /  1.7 °C 29.55 in /  1000.6 hPa WNW 6.0 mph /  9.7 km/h 9.0 mph /  14.5 km/h 93 % 0.01 in /  0.25 mm 0 W/m2
18:19 36.9 °F /  2.7 °C 35.3 °F /  1.8 °C 29.55 in /  1000.6 hPa WNW 6.0 mph /  9.7 km/h 9.0 mph /  14.5 km/h 94 % 0.01 in /  0.25 mm 0 W/m2
18:24 36.9 °F /  2.7 °C 35.3 °F /  1.8 °C 29.55 in /  1000.6 hPa WNW 7.0 mph /  11.3 km/h 10.0 mph /  16.1 km/h 94 % 0.00 in /  0 mm 0 W/m2
18:29 36.9 °F /  2.7 °C 35.3 °F /  1.8 °C 29.55 in /  1000.6 hPa WNW 8.0 mph /  12.9 km/h 12.0 mph /  19.3 km/h 94 % 0.00 in /  0 mm 0 W/m2
18:34 36.9 °F /  2.7 °C 35.3 °F /  1.8 °C 29.55 in /  1000.6 hPa WNW 7.0 mph /  11.3 km/h 10.0 mph /  16.1 km/h 94 % 0.00 in /  0 mm 0 W/m2
18:39 36.9 °F /  2.7 °C 35.3 °F /  1.8 °C 29.55 in /  1000.6 hPa WNW 7.0 mph /  11.3 km/h 10.0 mph /  16.1 km/h 94 % 0.00 in /  0 mm 0 W/m2
18:44 36.9 °F /  2.7 °C 35.3 °F /  1.8 °C 29.55 in /  1000.6 hPa West 5.0 mph /  8 km/h 7.0 mph /  11.3 km/h 94 % 0.00 in /  0 mm 0 W/m2
18:49 36.7 °F /  2.6 °C 35.1 °F /  1.7 °C 29.55 in /  1000.6 hPa WSW 4.0 mph /  6.4 km/h 6.0 mph /  9.7 km/h 94 % 0.00 in /  0 mm 0 W/m2
18:54 36.7 °F /  2.6 °C 35.1 °F /  1.7 °C 29.55 in /  1000.6 hPa WSW 2.0 mph /  3.2 km/h 5.0 mph /  8 km/h 94 % 0.00 in /  0 mm 0 W/m2
18:59 36.3 °F /  2.4 °C 34.5 °F /  1.4 °C 29.56 in /  1000.9 hPa West 2.0 mph /  3.2 km/h 5.0 mph /  8 km/h 93 % 0.00 in /  0 mm 0 W/m2
19:04 36.1 °F /  2.3 °C 34.3 °F /  1.3 °C 29.56 in /  1000.9 hPa WNW 3.0 mph /  4.8 km/h 6.0 mph /  9.7 km/h 93 % 0.00 in /  0 mm 0 W/m2
19:09 36.1 °F /  2.3 °C 34.3 °F /  1.3 °C 29.56 in /  1000.9 hPa WNW 4.0 mph /  6.4 km/h 6.0 mph /  9.7 km/h 93 % 0.00 in /  0 mm 0 W/m2
19:14 36.1 °F /  2.3 °C 34.6 °F /  1.4 °C 29.57 in /  1001.2 hPa West 5.0 mph /  8 km/h 7.0 mph /  11.3 km/h 94 % 0.00 in /  0 mm 0 W/m2
19:19 36.1 °F /  2.3 °C 34.6 °F /  1.4 °C 29.57 in /  1001.2 hPa West 3.0 mph /  4.8 km/h 6.0 mph /  9.7 km/h 94 % 0.00 in /  0 mm 0 W/m2
19:24 36.1 °F /  2.3 °C 34.6 °F /  1.4 °C 29.56 in /  1000.9 hPa WSW 5.0 mph /  8 km/h 8.0 mph /  12.9 km/h 94 % 0.00 in /  0 mm 0 W/m2
19:29 36.3 °F /  2.4 °C 34.8 °F /  1.6 °C 29.57 in /  1001.2 hPa West 6.0 mph /  9.7 km/h 9.0 mph /  14.5 km/h 94 % 0.00 in /  0 mm 0 W/m2
19:34 36.7 °F /  2.6 °C 35.1 °F /  1.7 °C 29.57 in /  1001.2 hPa West 7.0 mph /  11.3 km/h 11.0 mph /  17.7 km/h 94 % 0.00 in /  0 mm 0 W/m2
19:39 36.9 °F /  2.7 °C 35.3 °F /  1.8 °C 29.57 in /  1001.2 hPa West 5.0 mph /  8 km/h 10.0 mph /  16.1 km/h 94 % 0.00 in /  0 mm 0 W/m2
19:44 36.9 °F /  2.7 °C 35.3 °F /  1.8 °C 29.57 in /  1001.2 hPa West 7.0 mph /  11.3 km/h 10.0 mph /  16.1 km/h 94 % 0.00 in /  0 mm 0 W/m2
19:49 37.0 °F /  2.8 °C 35.5 °F /  1.9 °C 29.57 in /  1001.2 hPa West 7.0 mph /  11.3 km/h 10.0 mph /  16.1 km/h 94 % 0.00 in /  0 mm 0 W/m2
19:54 36.9 °F /  2.7 °C 35.3 °F /  1.8 °C 29.57 in /  1001.2 hPa West 5.0 mph /  8 km/h 8.0 mph /  12.9 km/h 94 % 0.00 in /  0 mm 0 W/m2
19:59 36.9 °F /  2.7 °C 35.3 °F /  1.8 °C 29.57 in /  1001.2 hPa West 7.0 mph /  11.3 km/h 9.0 mph /  14.5 km/h 94 % 0.00 in /  0 mm 0 W/m2
20:04 36.9 °F /  2.7 °C 35.3 °F /  1.8 °C 29.58 in /  1001.6 hPa West 7.0 mph /  11.3 km/h 13.0 mph /  20.9 km/h 94 % 0.00 in /  0 mm 0 W/m2
20:09 36.9 °F /  2.7 °C 35.3 °F /  1.8 °C 29.58 in /  1001.6 hPa West 10.0 mph /  16.1 km/h 14.0 mph /  22.5 km/h 94 % 0.00 in /  0 mm 0 W/m2
20:14 36.7 °F /  2.6 °C 35.1 °F /  1.7 °C 29.58 in /  1001.6 hPa West 7.0 mph /  11.3 km/h 10.0 mph /  16.1 km/h 94 % 0.00 in /  0 mm 0 W/m2
20:19 36.7 °F /  2.6 °C 34.8 °F /  1.6 °C 29.58 in /  1001.6 hPa West 7.0 mph /  11.3 km/h 11.0 mph /  17.7 km/h 93 % 0.00 in /  0 mm 0 W/m2
20:24 36.5 °F /  2.5 °C 34.7 °F /  1.5 °C 29.58 in /  1001.6 hPa West 7.0 mph /  11.3 km/h 10.0 mph /  16.1 km/h 93 % 0.00 in /  0 mm 0 W/m2
20:29 36.5 °F /  2.5 °C 34.7 °F /  1.5 °C 29.58 in /  1001.6 hPa West 7.0 mph /  11.3 km/h 10.0 mph /  16.1 km/h 93 % 0.00 in /  0 mm 0 W/m2
20:34 36.5 °F /  2.5 °C 34.7 °F /  1.5 °C 29.58 in /  1001.6 hPa West 8.0 mph /  12.9 km/h 12.0 mph /  19.3 km/h 93 % 0.00 in /  0 mm 0 W/m2
20:39 36.5 °F /  2.5 °C 34.7 °F /  1.5 °C 29.59 in /  1001.9 hPa West 8.0 mph /  12.9 km/h 13.0 mph /  20.9 km/h 93 % 0.00 in /  0 mm 0 W/m2
20:44 36.5 °F /  2.5 °C 34.7 °F /  1.5 °C 29.59 in /  1001.9 hPa West 8.0 mph /  12.9 km/h 12.0 mph /  19.3 km/h 93 % 0.00 in /  0 mm 0 W/m2
20:50 36.5 °F /  2.5 °C 34.7 °F /  1.5 °C 29.59 in /  1001.9 hPa WNW 8.0 mph /  12.9 km/h 12.0 mph /  19.3 km/h 93 % 0.00 in /  0 mm 0 W/m2
20:55 36.7 °F /  2.6 °C 34.8 °F /  1.6 °C 29.59 in /  1001.9 hPa West 8.0 mph /  12.9 km/h 11.0 mph /  17.7 km/h 93 % 0.00 in /  0 mm 0 W/m2
21:00 36.7 °F /  2.6 °C 34.8 °F /  1.6 °C 29.59 in /  1001.9 hPa West 7.0 mph /  11.3 km/h 10.0 mph /  16.1 km/h 93 % 0.00 in /  0 mm 0 W/m2
21:05 36.7 °F /  2.6 °C 34.6 °F /  1.4 °C 29.59 in /  1001.9 hPa West 8.0 mph /  12.9 km/h 11.0 mph /  17.7 km/h 92 % 0.00 in /  0 mm 0 W/m2
21:10 36.5 °F /  2.5 °C 34.4 °F /  1.3 °C 29.59 in /  1001.9 hPa West 8.0 mph /  12.9 km/h 11.0 mph /  17.7 km/h 92 % 0.00 in /  0 mm 0 W/m2
21:15 36.5 °F /  2.5 °C 34.4 °F /  1.3 °C 29.59 in /  1001.9 hPa West 8.0 mph /  12.9 km/h 11.0 mph /  17.7 km/h 92 % 0.00 in /  0 mm 0 W/m2
21:20 36.5 °F /  2.5 °C 34.4 °F /  1.3 °C 29.59 in /  1001.9 hPa WNW 8.0 mph /  12.9 km/h 11.0 mph /  17.7 km/h 92 % 0.00 in /  0 mm 0 W/m2
21:25 36.5 °F /  2.5 °C 34.4 °F /  1.3 °C 29.59 in /  1001.9 hPa WNW 9.0 mph /  14.5 km/h 14.0 mph /  22.5 km/h 92 % 0.00 in /  0 mm 0 W/m2
21:30 36.7 °F /  2.6 °C 34.6 °F /  1.4 °C 29.59 in /  1001.9 hPa WNW 9.0 mph /  14.5 km/h 14.0 mph /  22.5 km/h 92 % 0.00 in /  0 mm 0 W/m2
21:35 36.7 °F /  2.6 °C 34.6 °F /  1.4 °C 29.59 in /  1001.9 hPa West 9.0 mph /  14.5 km/h 12.0 mph /  19.3 km/h 92 % 0.00 in /  0 mm 0 W/m2
21:40 36.7 °F /  2.6 °C 34.6 °F /  1.4 °C 29.59 in /  1001.9 hPa West 8.0 mph /  12.9 km/h 16.0 mph /  25.7 km/h 92 % 0.00 in /  0 mm 0 W/m2
21:45 36.9 °F /  2.7 °C 34.8 °F /  1.6 °C 29.59 in /  1001.9 hPa West 9.0 mph /  14.5 km/h 13.0 mph /  20.9 km/h 92 % 0.00 in /  0 mm 0 W/m2
21:50 36.9 °F /  2.7 °C 34.5 °F /  1.4 °C 29.59 in /  1001.9 hPa West 8.0 mph /  12.9 km/h 12.0 mph /  19.3 km/h 91 % 0.00 in /  0 mm 0 W/m2
21:55 36.9 °F /  2.7 °C 34.5 °F /  1.4 °C 29.59 in /  1001.9 hPa West 9.0 mph /  14.5 km/h 15.0 mph /  24.1 km/h 91 % 0.00 in /  0 mm 0 W/m2
22:00 36.7 °F /  2.6 °C 34.3 °F /  1.3 °C 29.59 in /  1001.9 hPa WNW 8.0 mph /  12.9 km/h 11.0 mph /  17.7 km/h 91 % 0.00 in /  0 mm 0 W/m2
22:05 36.7 °F /  2.6 °C 34.3 °F /  1.3 °C 29.59 in /  1001.9 hPa WNW 10.0 mph /  16.1 km/h 15.0 mph /  24.1 km/h 91 % 0.00 in /  0 mm 0 W/m2
22:10 36.7 °F /  2.6 °C 34.3 °F /  1.3 °C 29.59 in /  1001.9 hPa WNW 9.0 mph /  14.5 km/h 12.0 mph /  19.3 km/h 91 % 0.00 in /  0 mm 0 W/m2
22:15 36.7 °F /  2.6 °C 34.3 °F /  1.3 °C 29.59 in /  1001.9 hPa WNW 10.0 mph /  16.1 km/h 15.0 mph /  24.1 km/h 91 % 0.00 in /  0 mm 0 W/m2
22:20 36.7 °F /  2.6 °C 34.3 °F /  1.3 °C 29.59 in /  1001.9 hPa WNW 8.0 mph /  12.9 km/h 12.0 mph /  19.3 km/h 91 % 0.00 in /  0 mm 0 W/m2
22:25 36.5 °F /  2.5 °C 34.1 °F /  1.2 °C 29.60 in /  1002.3 hPa WNW 8.0 mph /  12.9 km/h 13.0 mph /  20.9 km/h 91 % 0.00 in /  0 mm 0 W/m2
22:30 36.5 °F /  2.5 °C 34.1 °F /  1.2 °C 29.60 in /  1002.3 hPa WNW 13.0 mph /  20.9 km/h 19.0 mph /  30.6 km/h 91 % 0.00 in /  0 mm 0 W/m2
22:35 36.7 °F /  2.6 °C 34.3 °F /  1.3 °C 29.60 in /  1002.3 hPa WNW 11.0 mph /  17.7 km/h 19.0 mph /  30.6 km/h 91 % 0.00 in /  0 mm 0 W/m2
22:40 36.7 °F /  2.6 °C 34.3 °F /  1.3 °C 29.60 in /  1002.3 hPa WNW 9.0 mph /  14.5 km/h 14.0 mph /  22.5 km/h 91 % 0.00 in /  0 mm 0 W/m2
22:45 36.5 °F /  2.5 °C 33.8 °F /  1 °C 29.60 in /  1002.3 hPa WNW 9.0 mph /  14.5 km/h 15.0 mph /  24.1 km/h 90 % 0.00 in /  0 mm 0 W/m2
22:50 36.3 °F /  2.4 °C 33.7 °F /  0.9 °C 29.60 in /  1002.3 hPa West 8.0 mph /  12.9 km/h 13.0 mph /  20.9 km/h 90 % 0.00 in /  0 mm 0 W/m2
22:55 36.3 °F /  2.4 °C 33.7 °F /  0.9 °C 29.61 in /  1002.6 hPa West 7.0 mph /  11.3 km/h 13.0 mph /  20.9 km/h 90 % 0.00 in /  0 mm 0 W/m2
23:00 36.3 °F /  2.4 °C 33.7 °F /  0.9 °C 29.61 in /  1002.6 hPa WNW 9.0 mph /  14.5 km/h 13.0 mph /  20.9 km/h 90 % 0.00 in /  0 mm 0 W/m2
23:05 36.3 °F /  2.4 °C 33.9 °F /  1.1 °C 29.61 in /  1002.6 hPa WNW 9.0 mph /  14.5 km/h 15.0 mph /  24.1 km/h 91 % 0.00 in /  0 mm 0 W/m2
23:10 36.3 °F /  2.4 °C 33.9 °F /  1.1 °C 29.61 in /  1002.6 hPa WNW 8.0 mph /  12.9 km/h 16.0 mph /  25.7 km/h 91 % 0.00 in /  0 mm 0 W/m2
23:15 36.3 °F /  2.4 °C 33.9 °F /  1.1 °C 29.61 in /  1002.6 hPa WNW 9.0 mph /  14.5 km/h 12.0 mph /  19.3 km/h 91 % 0.00 in /  0 mm 0 W/m2
23:20 36.3 °F /  2.4 °C 33.9 °F /  1.1 °C 29.61 in /  1002.6 hPa WNW 8.0 mph /  12.9 km/h 16.0 mph /  25.7 km/h 91 % 0.00 in /  0 mm 0 W/m2
23:25 36.3 °F /  2.4 °C 33.9 °F /  1.1 °C 29.61 in /  1002.6 hPa WNW 8.0 mph /  12.9 km/h 12.0 mph /  19.3 km/h 91 % 0.00 in /  0 mm 0 W/m2
23:30 36.3 °F /  2.4 °C 33.9 °F /  1.1 °C 29.61 in /  1002.6 hPa WNW 9.0 mph /  14.5 km/h 16.0 mph /  25.7 km/h 91 % 0.00 in /  0 mm 0 W/m2
23:35 36.3 °F /  2.4 °C 33.9 °F /  1.1 °C 29.61 in /  1002.6 hPa WNW 10.0 mph /  16.1 km/h 15.0 mph /  24.1 km/h 91 % 0.00 in /  0 mm 0 W/m2
23:40 36.5 °F /  2.5 °C 34.1 °F /  1.2 °C 29.61 in /  1002.6 hPa WNW 8.0 mph /  12.9 km/h 11.0 mph /  17.7 km/h 91 % 0.00 in /  0 mm 0 W/m2
23:45 36.5 °F /  2.5 °C 34.1 °F /  1.2 °C 29.61 in /  1002.6 hPa WNW 7.0 mph /  11.3 km/h 13.0 mph /  20.9 km/h 91 % 0.00 in /  0 mm 0 W/m2
23:50 36.3 °F /  2.4 °C 33.9 °F /  1.1 °C 29.62 in /  1002.9 hPa WNW 6.0 mph /  9.7 km/h 9.0 mph /  14.5 km/h 91 % 0.00 in /  0 mm 0 W/m2
23:55 36.1 °F /  2.3 °C 33.5 °F /  0.8 °C 29.62 in /  1002.9 hPa WNW 6.0 mph /  9.7 km/h 10.0 mph /  16.1 km/h 90 % 0.00 in /  0 mm 0 W/m2
Delerius-Weather
Compliments of Weather Underground - 2.25 mb

Data updates at regular intervals.